Weather observations for the past three days for
Haines Memorial Airport
Imperial (Metric)
Date Time (edt) Wind (mph) Vis. (mi.) Weather Sky Cond. Temperature (ºF) Relative Humidity Wind Chill (°F) Heat Index (°F) Pressure Precipitation (in)
Air Dwpt 6 hour altimeter (in) sea level (mb) 1 hr 3 hr 6 hr
Max. Min.
04 19:55 SW 13 G 17 10.00 Mostly Cloudy BKN100 68 53.6 77 66.4 60% 29.52 0.0 0.03
04 19:35 SW 13 G 21 10.00 Mostly Cloudy FEW070 BKN100 BKN120 68 53.6 60% 29.52 0.0
04 19:15 SW 9 G 21 10.00 Light Rain SCT065 SCT090 SCT120 66.2 55.4 68% 29.52 0.0
04 18:55 SW 9 G 17 10.00 Partly Cloudy SCT075 SCT100 69.8 53.6 57% 29.52 0.0
04 18:35 W 7 10.00 Overcast BKN070 BKN085 OVC100 68 55.4 64% 29.52 0.0
04 18:15 W 12 10.00 Light Rain BKN070 OVC095 68 53.6 60% 29.52 0.0
04 17:55 W 12 G 18 10.00 Rain FEW020 BKN075 OVC085 69.8 53.6 57% 29.51 0.0 0.02
04 17:35 W 14 G 30 9.00 Light Rain BKN075 BKN085 BKN110 73.4 51.8 47% 29.51 0.0
04 17:15 SW 10 10.00 Mostly Cloudy SCT075 BKN100 75.2 50 41% 78 29.51 0.0
04 16:55 SW 13 G 20 10.00 Mostly Cloudy FEW065 SCT080 BKN100 75.2 50 41% 78 29.52 0.0
04 16:35 SW 16 G 23 10.00 Mostly Cloudy SCT065 BKN090 75.2 51.8 44% 78 29.52 0.0
04 16:15 SW 13 G 26 10.00 Partly Cloudy FEW065 SCT080 75.2 51.8 44% 78 29.53 0.0
04 15:55 SW 13 10.00 Mostly Cloudy SCT055 BKN065 BKN080 73.4 53.6 50% 29.54 0.0
04 15:35 SW 13 G 22 10.00 Mostly Cloudy BKN065 BKN085 73.4 53.6 50% 29.55 0.0
04 15:15 SW 15 G 26 10.00 Mostly Cloudy BKN060 BKN070 73.4 53.6 50% 29.56 0.0
04 14:55 S 17 G 25 10.00 Mostly Cloudy SCT060 BKN070 73.4 51.8 47% 29.56 0.0
04 14:35 SW 18 G 26 10.00 Partly Cloudy SCT060 SCT070 73.4 50 44% 29.57 0.0
04 14:15 SW 14 G 24 10.00 A Few Clouds FEW060 73.4 50 44% 29.58 0.0
04 13:55 SW 16 G 28 10.00 Fair CLR 73.4 48.2 73.2 50.9 41% 29.58 0.0
04 13:35 SW 14 G 28 10.00 Fair CLR 71.6 46.4 41% 29.59 0.0
04 13:15 SW 13 G 28 10.00 A Few Clouds FEW075 71.6 44.6 38% 29.6 0.0
04 12:55 SW 9 G 24 10.00 Fair CLR 71.6 44.6 38% 29.61 0.0
04 12:35 SW 9 G 16 10.00 Fair CLR 71.6 46.4 41% 29.62 0.0
04 12:15 S 13 G 16 10.00 Fair CLR 69.8 48.2 46% 29.63 0.0
04 11:55 S 14 G 18 10.00 Fair CLR 68 46.4 46% 29.63 0.0
04 11:35 SW 14 G 18 10.00 Fair CLR 68 48.2 49% 29.64 0.0
04 11:15 SW 15 10.00 Fair CLR 66.2 48.2 52% 29.65 0.0
04 10:55 SW 10 10.00 Fair CLR 64.4 48.2 56% 29.65 0.0
04 10:35 S 13 10.00 Fair CLR 64.4 48.2 56% 29.66 0.0
04 10:15 SW 9 10.00 Fair CLR 62.6 48.2 60% 29.66 0.0
04 09:55 S 8 10.00 Fair CLR 60.8 46.4 59% 29.66 0.0
04 09:35 SW 7 10.00 Fair CLR 59 46.4 63% 29.66 0.0
04 09:15 SW 8 10.00 Fair CLR 59 46.4 63% 29.67 0.0
04 08:55 SW 8 10.00 Fair CLR 55.4 46.4 72% 29.67 0.0
04 08:35 S 8 10.00 Fair CLR 53.6 46.4 77% 29.68 0.0
04 08:15 SW 9 10.00 Fair CLR 53.6 44.6 72% 29.68 0.0
04 07:55 SW 10 10.00 Fair CLR 51.8 44.6 50.9 45 77% 29.68 0.0
04 07:35 SW 10 10.00 Fair CLR 50 42.8 76% 46 29.68 0.0
04 07:15 SW 9 10.00 Fair CLR 48.2 42.8 82% 45 29.67 0.0
04 06:55 SW 10 10.00 Fair CLR 46.4 42.8 87% 42 29.67 0.0
04 06:35 S 9 10.00 Fair CLR 46.4 42.8 87% 42 29.67 0.0
04 06:15 S 7 10.00 Fair CLR 44.6 41 87% 41 29.67 0.0
04 05:55 S 6 10.00 Fair CLR 46.4 41 82% 44 29.67 0.0
04 05:35 S 8 10.00 Fair CLR 46.4 41 82% 43 29.67 0.0
04 05:15 S 8 10.00 Fair CLR 46.4 41 82% 43 29.67 0.0
04 04:55 S 7 10.00 Fair CLR 46.4 41 82% 43 29.67 0.0
04 04:35 S 7 10.00 Fair CLR 46.4 41 82% 43 29.67 0.0
04 04:15 S 9 10.00 Fair CLR 48.2 42.8 82% 45 29.68 0.0
04 03:55 S 9 10.00 Fair CLR 48.2 42.8 82% 45 29.68 0.0
04 03:35 SW 10 10.00 Fair CLR 48.2 42.8 82% 44 29.69 0.0
04 03:15 S 12 10.00 Fair CLR 50 42.8 76% 46 29.7 0.0
04 02:55 SW 10 10.00 A Few Clouds FEW080 50 42.8 76% 46 29.71 0.0
04 02:35 SW 10 10.00 Fair CLR 50 42.8 76% 46 29.72 0.0
04 02:15 SW 10 10.00 Fair CLR 48.2 42.8 82% 44 29.72 0.0
04 01:55 S 8 10.00 Fair CLR 46.4 41 51.6 46 82% 43 29.73 0.0
04 01:35 S 8 10.00 A Few Clouds FEW080 46.4 41 82% 43 29.74 0.0
04 01:15 S 8 10.00 A Few Clouds FEW080 46.4 42.8 87% 43 29.74 0.0
04 00:55 S 9 10.00 Fair CLR 46.4 42.8 87% 42 29.75 0.0
04 00:35 S 8 10.00 Fair CLR 46.4 42.8 87% 43 29.75 0.0
04 00:15 S 8 10.00 Fair CLR 46.4 42.8 87% 43 29.76 0.0
03 23:55 S 9 10.00 Fair CLR 48.2 42.8 82% 45 29.76 0.0
03 23:35 S 10 10.00 Fair CLR 48.2 42.8 82% 44 29.76 0.0
03 23:15 S 12 10.00 Fair CLR 48.2 42.8 82% 44 29.76 0.0
03 22:55 S 12 10.00 Fair CLR 48.2 42.8 82% 44 29.77 0.0
03 22:35 S 13 G 17 10.00 Fair CLR 48.2 42.8 82% 43 29.77 0.0
03 22:15 S 12 10.00 Fair CLR 50 42.8 76% 46 29.77 0.0
03 21:55 S 14 10.00 Fair CLR 50 42.8 76% 45 29.77 0.0
03 21:35 S 12 10.00 Fair CLR 50 42.8 76% 46 29.77 0.0
03 21:15 S 13 G 20 10.00 Fair CLR 50 42.8 76% 46 29.77 0.0
03 20:55 S 13 10.00 Fair CLR 50 42.8 76% 46 29.77 0.0
03 20:35 S 12 G 20 10.00 Fair CLR 50 41 71% 46 29.78 0.0
03 20:15 S 15 G 18 10.00 A Few Clouds FEW110 51.8 41 67% 29.78 0.0
03 19:55 S 13 G 20 10.00 A Few Clouds FEW110 51.8 41 62.8 51.1 67% 29.79 0.0
03 19:35 S 15 G 21 10.00 Partly Cloudy FEW090 SCT110 51.8 41 67% 29.79 0.0
03 19:15 S 15 G 23 10.00 Overcast BKN090 OVC110 53.6 41 63% 29.8 0.0
03 18:55 S 15 G 21 10.00 Overcast OVC090 51.8 41 67% 29.81 0.0
03 18:35 S 14 10.00 Overcast OVC090 51.8 41 67% 29.82 0.0
03 18:15 S 13 10.00 Overcast OVC090 51.8 41 67% 29.83 0.0
03 17:55 S 9 G 20 10.00 Overcast OVC080 51.8 41 67% 29.83 0.0
03 17:35 S 14 10.00 Overcast SCT070 OVC080 51.8 41 67% 29.84 0.0
03 17:15 S 13 G 20 10.00 Overcast OVC060 51.8 39.2 62% 29.85 0.0
03 16:55 SW 13 G 23 10.00 Overcast BKN060 OVC080 51.8 39.2 62% 29.86 0.0
03 16:35 SW 15 G 24 10.00 Overcast OVC060 51.8 39.2 62% 29.86 0.0
03 16:15 SW 14 G 24 10.00 Overcast FEW060 BKN070 OVC080 53.6 39.2 58% 29.87 0.0
03 15:55 W 20 G 28 10.00 Overcast SCT048 BKN055 OVC100 57.2 39.2 51% 29.88 0.0
03 15:35 W 20 G 26 10.00 Overcast FEW048 BKN055 OVC065 57.2 39.2 51% 29.87 0.0
03 15:15 SW 9 G 20 10.00 Overcast OVC060 59 37.4 45% 29.87 0.0
03 14:55 W 13 G 24 10.00 Overcast OVC060 59 35.6 42% 29.87 0.0
03 14:35 SW 16 G 26 10.00 Mostly Cloudy BKN060 BKN085 60.8 37.4 42% 29.87 0.0
03 14:15 SW 13 G 28 10.00 Mostly Cloudy BKN060 BKN085 60.8 35.6 39% 29.88 0.0
03 13:55 W 15 G 24 10.00 Partly Cloudy FEW060 SCT090 60.8 35.6 61.7 40.6 39% 29.88 0.0
03 13:35 W 15 G 24 10.00 Mostly Cloudy BKN090 60.8 37.4 42% 29.9 0.0
03 13:15 W 14 G 22 10.00 Mostly Cloudy BKN090 59 35.6 42% 29.91 0.0
03 12:55 W 15 10.00 Overcast OVC080 57.2 35.6 44% 29.92 0.0
03 12:35 SW 16 G 24 10.00 Overcast OVC090 57.2 35.6 44% 29.93 0.0
03 12:15 SW 14 G 24 10.00 Overcast OVC090 55.4 33.8 44% 29.93 0.0
03 11:55 SW 13 G 20 10.00 Overcast OVC090 55.4 33.8 44% 29.94 0.0
03 11:35 SW 13 G 17 10.00 Overcast BKN080 OVC110 55.4 35.6 47% 29.94 0.0
03 11:15 SW 9 G 21 10.00 Overcast OVC080 53.6 33.8 47% 29.95 0.0
03 10:55 SW 10 10.00 Overcast OVC080 51.8 32 47% 29.95 0.0
03 10:35 SW 10 10.00 Overcast BKN090 OVC100 51.8 33.8 50% 29.95 0.0
03 10:15 SW 9 G 17 10.00 Overcast OVC090 51.8 32 47% 29.95 0.0
03 09:55 SW 7 10.00 Overcast BKN080 OVC100 50 32 50% 48 29.96 0.0
03 09:35 SW 8 10.00 Overcast OVC080 50 32 50% 47 29.96 0.0
03 09:15 SW 10 G 16 10.00 Overcast BKN080 OVC100 50 32 50% 46 29.96 0.0
03 08:55 SW 13 10.00 Mostly Cloudy FEW080 BKN100 48.2 32 54% 43 29.96 0.0
03 08:35 SW 9 10.00 Fair CLR 46.4 32 57% 42 29.96 0.0
03 08:15 SW 8 10.00 Fair CLR 44.6 32 61% 41 29.96 0.0
03 07:55 SW 9 10.00 Fair CLR 41 32 40.6 34.9 70% 36 29.95 0.0
03 07:35 SW 7 10.00 Fair CLR 39.2 32 75% 35 29.96 0.0
03 07:15 S 5 10.00 Fair CLR 37.4 30.2 75% 34 29.96 0.0
03 06:55 SW 6 10.00 Fair CLR 37.4 30.2 75% 33 29.96 0.0
03 06:35 S 6 10.00 Fair CLR 35.6 30.2 81% 31 29.96 0.0
03 06:15 S 7 10.00 Fair CLR 35.6 30.2 81% 31 29.95 0.0
03 05:55 S 6 10.00 Fair CLR 35.6 30.2 81% 31 29.96 0.0
03 05:35 S 7 10.00 Fair CLR 35.6 30.2 81% 31 29.96 0.0
03 05:15 S 6 10.00 Fair CLR 35.6 30.2 81% 31 29.96 0.0
03 04:55 S 6 10.00 Fair CLR 35.6 30.2 81% 31 29.96 0.0
03 04:35 S 6 10.00 Fair CLR 35.6 30.2 81% 31 29.96 0.0
03 04:15 SW 6 10.00 Fair CLR 35.6 30.2 81% 31 29.97 0.0
03 03:55 S 6 10.00 Fair CLR 35.6 30.2 81% 31 29.97 0.0
03 03:35 SW 6 10.00 Fair CLR 35.6 30.2 81% 31 29.97 0.0
03 03:15 SW 6 10.00 Fair CLR 37.4 28.4 70% 33 29.97 0.0
03 02:55 SW 5 10.00 Fair CLR 35.6 28.4 75% 32 29.98 0.0
03 02:35 SW 3 10.00 Fair CLR 37.4 28.4 70% 29.99 0.0
03 02:15 S 5 10.00 Fair CLR 35.6 30.2 81% 32 29.99 0.0
03 01:55 S 6 10.00 Fair CLR 35.6 30.2 47.7 34.9 81% 31 30 0.0
03 01:35 S 6 10.00 Fair CLR 35.6 30.2 81% 31 30 0.0
03 01:15 S 5 10.00 Fair CLR 37.4 30.2 75% 34 30.01 0.0
03 00:55 SW 3 10.00 Partly Cloudy SCT095 39.2 30.2 70% 30.01 0.0
03 00:35 S 3 10.00 Mostly Cloudy BKN095 39.2 30.2 70% 30.01 0.0
03 00:15 S 3 10.00 A Few Clouds FEW095 39.2 30.2 70% 30.01 0.0
02 23:55 S 3 10.00 A Few Clouds FEW090 37.4 30.2 75% 30.02 0.0
02 23:35 S 3 10.00 Partly Cloudy SCT090 37.4 28.4 70% 30.02 0.0
02 23:15 SW 3 10.00 Partly Cloudy SCT090 37.4 28.4 70% 30.03 0.0
02 22:55 S 2 10.00 Fair CLR 37.4 26.6 65% 30.03 0.0
02 22:35 S 2 10.00 Fair CLR 39.2 26.6 61% 30.03 0.0
02 22:15 SW 2 10.00 Fair CLR 39.2 24.8 56% 30.03 0.0
02 21:55 W 1 10.00 A Few Clouds FEW080 39.2 24.8 56% 30.03 0.0
02 21:35 W 3 10.00 Partly Cloudy SCT080 41 26.6 57% 30.03 0.0
02 21:15 W 2 10.00 Fair CLR 42.8 23 46% 30.02 0.0
02 20:55 W 3 10.00 Fair CLR 44.6 23 43% 30.02 0.0
02 20:35 NW 6 10.00 Fair CLR 42.8 26.6 53% 40 30.02 0.0
02 20:15 NW 7 10.00 Fair CLR 46.4 21.2 37% 43 30.02 0.0
02 19:55 NW 10 10.00 Fair CLR 48.2 21.2 51.8 46.2 34% 44 30.02 0.0
02 19:35 NW 9 10.00 Fair CLR 48.2 19.4 32% 45 30.02 0.0
02 19:15 NW 6 10.00 Fair CLR 48.2 19.4 32% 46 30.03 0.0
02 18:55 NW 10 10.00 Fair CLR 48.2 21.2 34% 44 30.03 0.0
02 18:35 W 13 G 23 10.00 Fair CLR 48.2 21.2 34% 43 30.03 0.0
02 18:15 NW 15 G 20 10.00 Fair CLR 50 21.2 32% 45 30.03 0.0
02 17:55 Vrbl 7 G 17 10.00 Fair CLR 50 21.2 32% 48 30.03 0.0
02 17:35 N 12 G 18 10.00 Fair CLR 50 23 35% 46 30.03 0.0
02 17:15 NW 13 G 18 10.00 Fair CLR 50 23 35% 46 30.03 0.0
02 16:55 W 12 G 17 10.00 Fair CLR 50 24.8 37% 46 30.03 0.0
02 16:35 NW 17 G 21 10.00 A Few Clouds FEW060 50 26.6 40% 45 30.04 0.0
02 16:15 NW 16 10.00 A Few Clouds FEW060 50 24.8 37% 45 30.04 0.0
02 15:55 NW 14 10.00 Mostly Cloudy BKN060 50 24.8 37% 45 30.05 0.0
02 15:35 W 10 G 21 10.00 Mostly Cloudy BKN060 50 26.6 40% 46 30.06 0.0
02 15:15 NW 12 10.00 Mostly Cloudy BKN060 48.2 26.6 43% 44 30.06 0.0
02 14:55 NW 12 G 20 10.00 Mostly Cloudy BKN060 50 26.6 40% 46 30.06 0.0
02 14:35 NW 12 G 17 10.00 Overcast OVC060 48.2 24.8 40% 44 30.07 0.0
02 14:15 W 14 G 17 10.00 Overcast OVC060 48.2 24.8 40% 43 30.07 0.0
02 13:55 NW 10 10.00 Overcast OVC060 46.4 24.8 48.4 34.3 43% 42 30.08 0.0
02 13:35 Vrbl 6 10.00 Overcast BKN065 OVC070 48.2 26.6 43% 46 30.08 0.0
02 13:15 Vrbl 7 10.00 Overcast SCT060 OVC070 46.4 24.8 43% 43 30.09 0.0
02 12:55 Vrbl 3 10.00 Overcast BKN050 OVC070 46.4 26.6 46% 30.09 0.0
02 12:35 W 8 10.00 Overcast BKN050 OVC070 46.4 26.6 46% 43 30.09 0.0
02 12:15 N 8 10.00 Overcast SCT050 OVC060 46.4 24.8 43% 43 30.1 0.0
02 11:55 NW 8 G 16 10.00 Mostly Cloudy SCT049 BKN060 44.6 24.8 46% 41 30.1 0.0
02 11:35 Vrbl 6 10.00 Mostly Cloudy SCT045 BKN060 44.6 26.6 49% 42 30.1 0.0
02 11:15 NW 9 10.00 Mostly Cloudy BKN045 BKN060 44.6 24.8 46% 40 30.1 0.0
02 10:55 N 12 10.00 A Few Clouds FEW060 44.6 24.8 46% 39 30.1 0.0
02 10:35 NW 9 10.00 A Few Clouds FEW033 FEW041 42.8 28.4 57% 38 30.1 0.0
02 10:15 NE 8 10.00 Partly Cloudy FEW028 SCT033 42.8 28.4 57% 39 30.1 0.0
02 09:55 NW 8 10.00 Partly Cloudy SCT026 42.8 30.2 61% 39 30.1 0.0
02 09:35 NW 9 10.00 A Few Clouds FEW024 41 30.2 66% 36 30.1 0.0
02 09:15 N 8 10.00 A Few Clouds FEW021 41 30.2 66% 36 30.1 0.0
02 08:55 N 8 10.00 Fair CLR 39.2 30.2 70% 34 30.1 0.0
02 08:35 NW 7 10.00 Fair CLR 37.4 30.2 75% 33 30.1 0.0
02 08:15 NW 5 10.00 Fair CLR 37.4 28.4 70% 34 30.1 0.0
02 07:55 NW 5 10.00 Partly Cloudy SCT029 35.6 28.4 34.3 29.8 75% 32 30.09 0.0
02 07:35 NW 2 10.00 Mostly Cloudy BKN029 33.8 28.4 81% 30.08 0.0
02 07:15 NW 3 10.00 Fair CLR 32 28.4 87% 30.08 0.0
02 06:55 NW 5 10.00 Fair CLR 32 26.6 80% 28 30.08 0.0
02 06:35 N 3 10.00 Fair CLR 32 28.4 87% 30.08 0.0
02 06:15 NW 3 10.00 Fair CLR 32 28.4 87% 30.08 0.0
02 05:55 NW 5 10.00 Fair CLR 32 28.4 87% 28 30.07 0.0
02 05:35 NW 5 10.00 A Few Clouds FEW070 30.2 28.4 93% 26 30.07 0.0
02 05:15 NW 3 10.00 Mostly Cloudy BKN070 30.2 28.4 93% 30.07 0.0
02 04:55 NW 3 10.00 A Few Clouds FEW070 30.2 28.4 93% 30.07 0.0
02 04:35 NW 3 10.00 Fair CLR 30.2 28.4 93% 30.06 0.0
02 04:15 NW 3 10.00 Fair CLR 30.2 28.4 93% 30.06 0.0
02 03:55 NW 3 10.00 Fair CLR 30.2 28.4 93% 30.06 0.0
02 03:35 NW 3 10.00 Fair CLR 32 28.4 87% 30.06 0.0
02 03:15 NW 5 10.00 Fair CLR 32 28.4 87% 28 30.06 0.0
02 02:55 NW 3 10.00 Fair CLR 32 28.4 87% 30.06 0.0
02 02:35 NW 5 10.00 Fair CLR 32 28.4 87% 28 30.07 0.0
02 02:15 NW 3 10.00 Fair CLR 30.2 28.4 93% 30.07 0.0
02 01:55 NW 5 10.00 Fair CLR 30.2 28.4 42.4 30.7 93% 26 30.07 0.0
02 01:35 NW 6 10.00 Fair CLR 32 28.4 87% 27 30.08 0.0
02 01:15 W 5 10.00 Fair CLR 32 28.4 87% 28 30.08 0.0
02 00:55 NW 7 10.00 Fair CLR 33.8 28.4 81% 28 30.08 0.0
02 00:35 NW 6 10.00 Fair CLR 33.8 26.6 75% 29 30.08 0.0
02 00:15 NW 7 10.00 Fair CLR 33.8 26.6 75% 28 30.07 0.0
01 23:55 NW 7 10.00 Fair CLR 33.8 26.6 75% 28 30.07 0.0
01 23:35 NW 9 10.00 A Few Clouds FEW075 33.8 26.6 75% 27 30.06 0.0
01 23:15 W 8 10.00 Partly Cloudy SCT075 33.8 26.6 75% 28 30.06 0.0
01 22:55 NW 7 10.00 Fair CLR 33.8 26.6 75% 28 30.06 0.0
01 22:35 NW 8 10.00 Fair CLR 35.6 26.6 70% 30 30.06 0.0
01 22:15 NW 7 10.00 Fair CLR 35.6 24.8 65% 31 30.06 0.0
01 21:55 W 8 10.00 Fair CLR 37.4 24.8 60% 32 30.05 0.0
01 21:35 NW 10 10.00 Fair CLR 37.4 24.8 60% 31 30.04 0.0
01 21:15 NW 8 10.00 Partly Cloudy SCT070 SCT080 39.2 24.8 56% 34 30.03 0.0
01 20:55 NW 12 10.00 Mostly Cloudy BKN075 39.2 24.8 56% 33 30.03 0.0
01 20:35 NW 12 10.00 Mostly Cloudy BKN075 41 26.6 57% 35 30.03 0.0
01 20:15 NW 13 10.00 Overcast OVC075 41 26.6 57% 34 30.03 0.0
Date Time (edt) Wind (mph) Vis. (mi.) Weather Sky Cond. Air Dwpt Max. Min. Relative Humidity Wind Chill (°F) Heat Index (°F) altimeter (in) sea level (mb) 1 hr 3 hr 6 hr
6 hour
Temperature (ºF) Pressure Precipitation (in)